MSC Cordoba — A8OF8 — position and weather

sailwx.info

Track history (hours):
 
Tides and Currents Weather Stations Pressure Air Temp Water Temp Dewpoint Dewpoint Depression Visibility Wind Speed Wind Dir Waves Ship Positions

MSC Cordoba

Last reported at 2016-Feb-09 12:00 UTC. Time now 2016-Feb-14 14:46 UTC.
Position N 16°30' W 070°18'.

Length 275 m; draft 10.4 m.

Type: Ship (hazmat cat A). MMSI: 636091473.

Wind from 100 at 20 knots

Waves 1.0 meters (3 feet), 3 second period

Barometer 1016.9 mb
Air temperature 28.0 ° C
Visibility: greater than 10.8 NM
Dewpoint 22.0 ° C
Water temperature 27.0 ° C

Date/timePositionNaut miles runAvg speedWind from/ knotsBaromVisibWave heightAir tempDewpointWater temp
2016-Feb-09 12:00N 16°30' W 070°18'   100 / 201016.910.8 1.028.022.027.0
2016-Feb-07 06:00N 25°42' W 056°12'23819.8 140 / 181024.010.8 1.524.523.825.0
2016-Feb-06 18:00N 27°36' W 052°18'11218.6 140 / 181026.4 0.5 25.025.023.0
2016-Feb-06 12:00N 28°24' W 050°24'13522.5 150 / 101029.310.8 1.522.010.823.0
2016-Feb-06 06:00N 29°42' W 048°18'31817.6 140 / 151030.010.8 1.021.010.923.0
2016-Feb-05 12:00N 31°42' W 042°36'49820.8 360 / 111034.110.8 1.518.012.720.0
2016-Feb-04 12:00N 34°18' W 033°12'39119.7 080 / 241030.110.8 0.524.017.319.0
2016-Feb-03 16:05N 36°05' W 025°31'1120.1
2016-Feb-03 15:34N 36°08' W 025°19'2020.0
2016-Feb-03 14:34N 36°12' W 024°54'2019.9
2016-Feb-03 13:34N 36°16' W 024°30'2020.0
2016-Feb-03 12:34N 36°20' W 024°06'2019.8
2016-Feb-03 11:33N 36°25' W 023°42'62119.4
2016-Feb-02 03:33N 37°49' W 010°50'1818.5
2016-Feb-02 02:33N 37°51' W 010°27'2019.2
2016-Feb-02 01:32N 37°52' W 010°02'2219.2
2016-Feb-02 00:24N 37°53' W 009°35'1618.8
2016-Feb-01 23:33N 37°53' W 009°14'1817.9
2016-Feb-01 22:33N 37°54' W 008°52'2 2.1
2016-Feb-01 21:33N 37°56' W 008°51'0 0.0
2016-Feb-01 20:30N 37°56' W 008°51'0 0.0
2016-Feb-01 19:29N 37°56' W 008°51'0 0.0
2016-Feb-01 18:32N 37°56' W 008°51'0 0.0
2016-Feb-01 17:32N 37°56' W 008°51'0 0.0
2016-Feb-01 16:31N 37°56' W 008°51'0 0.0
2016-Feb-01 15:28N 37°56' W 008°51'0 0.0
2016-Feb-01 14:33N 37°56' W 008°51'0 0.0
2016-Feb-01 13:30N 37°56' W 008°51'2 2.4
2016-Feb-01 12:33N 37°54' W 008°52'1 1.5
2016-Feb-01 11:33N 37°53' W 008°54'5 5.0
2016-Feb-01 10:33N 37°54' W 008°60'10 9.6
2016-Feb-01 09:33N 37°60' W 009°10'1312.6
2016-Feb-01 08:33N 38°08' W 009°22'1514.9
2016-Feb-01 07:33N 38°17' W 009°37'1615.5
2016-Feb-01 06:33N 38°27' W 009°52'1615.7
2016-Feb-01 05:33N 38°39' W 010°06'1616.1
2016-Feb-01 04:33N 38°55' W 010°08'1717.0
2016-Feb-01 03:33N 39°12' W 010°07'1515.3
2016-Feb-01 02:33N 39°27' W 010°08'1817.7
2016-Feb-01 01:32N 39°45' W 010°07'1715.9
2016-Feb-01 00:29N 40°02' W 010°07'1516.0
2016-Jan-31 23:32N 40°17' W 010°05'1716.1
2016-Jan-31 22:29N 40°34' W 010°05'1515.7
2016-Jan-31 21:33N 40°49' W 010°05'1616.3
2016-Jan-31 20:32N 41°05' W 010°07'1616.1
2016-Jan-31 19:32N 41°21' W 010°06'1615.6
2016-Jan-31 18:32N 41°37' W 010°07'1616.3
2016-Jan-31 17:33N 41°53' W 010°06'  
Track history (hours):
 
Tides and Currents Weather Stations Pressure Air Temp Water Temp Dewpoint Dewpoint Depression Visibility Wind Speed Wind Dir Waves Ship Positions

MSC Cordoba

Last reported at 2016-Feb-09 12:00 UTC. Time now 2016-Feb-14 14:46 UTC.
Position N 16°30' W 070°18'.

Length 275 m; draft 10.4 m.

Type: Ship (hazmat cat A). MMSI: 636091473.

Wind from 100 at 20 knots

Waves 1.0 meters (3 feet), 3 second period

Barometer 1016.9 mb
Air temperature 28.0 ° C
Visibility: greater than 10.8 NM
Dewpoint 22.0 ° C
Water temperature 27.0 ° C

Date/timePositionNaut miles runAvg speedWind from/ knotsBaromVisibWave heightAir tempDewpointWater temp
2016-Feb-09 12:00N 16°30' W 070°18'   100 / 201016.910.8 1.028.022.027.0
2016-Feb-07 06:00N 25°42' W 056°12'23819.8 140 / 181024.010.8 1.524.523.825.0
2016-Feb-06 18:00N 27°36' W 052°18'11218.6 140 / 181026.4 0.5 25.025.023.0
2016-Feb-06 12:00N 28°24' W 050°24'13522.5 150 / 101029.310.8 1.522.010.823.0
2016-Feb-06 06:00N 29°42' W 048°18'31817.6 140 / 151030.010.8 1.021.010.923.0
2016-Feb-05 12:00N 31°42' W 042°36'49820.8 360 / 111034.110.8 1.518.012.720.0
2016-Feb-04 12:00N 34°18' W 033°12'39119.7 080 / 241030.110.8 0.524.017.319.0
2016-Feb-03 16:05N 36°05' W 025°31'1120.1
2016-Feb-03 15:34N 36°08' W 025°19'2020.0
2016-Feb-03 14:34N 36°12' W 024°54'2019.9
2016-Feb-03 13:34N 36°16' W 024°30'2020.0
2016-Feb-03 12:34N 36°20' W 024°06'2019.8
2016-Feb-03 11:33N 36°25' W 023°42'62119.4
2016-Feb-02 03:33N 37°49' W 010°50'1818.5
2016-Feb-02 02:33N 37°51' W 010°27'2019.2
2016-Feb-02 01:32N 37°52' W 010°02'2219.2
2016-Feb-02 00:24N 37°53' W 009°35'1618.8
2016-Feb-01 23:33N 37°53' W 009°14'1817.9
2016-Feb-01 22:33N 37°54' W 008°52'2 2.1
2016-Feb-01 21:33N 37°56' W 008°51'0 0.0
2016-Feb-01 20:30N 37°56' W 008°51'0 0.0
2016-Feb-01 19:29N 37°56' W 008°51'0 0.0
2016-Feb-01 18:32N 37°56' W 008°51'0 0.0
2016-Feb-01 17:32N 37°56' W 008°51'0 0.0
2016-Feb-01 16:31N 37°56' W 008°51'0 0.0
2016-Feb-01 15:28N 37°56' W 008°51'0 0.0
2016-Feb-01 14:33N 37°56' W 008°51'0 0.0
2016-Feb-01 13:30N 37°56' W 008°51'2 2.4
2016-Feb-01 12:33N 37°54' W 008°52'1 1.5
2016-Feb-01 11:33N 37°53' W 008°54'5 5.0
2016-Feb-01 10:33N 37°54' W 008°60'10 9.6
2016-Feb-01 09:33N 37°60' W 009°10'1312.6
2016-Feb-01 08:33N 38°08' W 009°22'1514.9
2016-Feb-01 07:33N 38°17' W 009°37'1615.5
2016-Feb-01 06:33N 38°27' W 009°52'1615.7
2016-Feb-01 05:33N 38°39' W 010°06'1616.1
2016-Feb-01 04:33N 38°55' W 010°08'1717.0
2016-Feb-01 03:33N 39°12' W 010°07'1515.3
2016-Feb-01 02:33N 39°27' W 010°08'1817.7
2016-Feb-01 01:32N 39°45' W 010°07'1715.9
2016-Feb-01 00:29N 40°02' W 010°07'1516.0
2016-Jan-31 23:32N 40°17' W 010°05'1716.1
2016-Jan-31 22:29N 40°34' W 010°05'1515.7
2016-Jan-31 21:33N 40°49' W 010°05'1616.3
2016-Jan-31 20:32N 41°05' W 010°07'1616.1
2016-Jan-31 19:32N 41°21' W 010°06'1615.6
2016-Jan-31 18:32N 41°37' W 010°07'1616.3
2016-Jan-31 17:33N 41°53' W 010°06'  

Dump ship's entire track history